Terminal Aerodrome Forecast
Issued by NWS

Home | Current Version | Previous Version | Text Only | Print | Product List | Glossary On
Versions: 1 2 3 4 5 6 7 8 9 10 11 12 13 14 15 16 17 18 19 20 21 22 23 24 25 26 27 28 29 30 31 32 33 34 35 36 37 38 39 40 41 42 43 44
000
FTUS45 KCYS 302320
TAFRWL
TAF
KRWL 302320Z 0100/0124 29013G23KT P6SM SCT090
     FM010200 27012KT P6SM BKN090
     FM010900 25012KT 3SM BR OVC015
     FM011500 27015G25KT P6SM OVC050
     FM011800 28017G29KT P6SM VCSH OVC050=

USA.gov is the U.S. government's official web portal to all federal, state and local government web resources and services.